createdAt,value
2023-03-15T00:01:46.497Z,81.82
2023-03-15T00:04:14.196Z,81.56
2023-03-15T00:06:41.045Z,81.50
2023-03-15T00:09:07.734Z,81.68
2023-03-15T00:11:34.345Z,81.60
2023-03-15T00:14:02.515Z,81.49
2023-03-15T00:16:29.694Z,81.67
2023-03-15T00:18:56.732Z,81.65
2023-03-15T00:21:23.986Z,81.71
2023-03-15T00:23:51.060Z,81.83
2023-03-15T00:26:17.943Z,81.70
2023-03-15T00:28:44.754Z,81.75
2023-03-15T00:31:25.421Z,81.57
2023-03-15T00:33:53.912Z,81.86
2023-03-15T00:36:25.310Z,81.77
2023-03-15T00:38:53.835Z,81.82
2023-03-15T00:41:22.503Z,81.98
2023-03-15T00:43:49.733Z,81.79
2023-03-15T00:46:17.735Z,82.00
2023-03-15T00:48:48.212Z,82.21
2023-03-15T00:51:21.255Z,82.21
2023-03-15T00:53:49.412Z,82.50
2023-03-15T00:56:21.504Z,82.51
2023-03-15T00:58:48.545Z,82.50
2023-03-15T01:01:24.335Z,82.68
2023-03-15T01:03:51.671Z,82.85
2023-03-15T01:06:23.416Z,83.02
2023-03-15T01:08:51.587Z,83.30
2023-03-15T01:11:22.380Z,83.00
2023-03-15T01:13:48.912Z,83.36
2023-03-15T01:16:15.599Z,83.34
2023-03-15T01:18:42.901Z,83.33
2023-03-15T01:21:10.967Z,83.50
2023-03-15T01:23:38.246Z,83.35
2023-03-15T01:26:07.318Z,83.86
2023-03-15T01:28:33.935Z,83.92
2023-03-15T01:31:00.617Z,83.96
2023-03-15T01:33:27.827Z,84.16
2023-03-15T01:36:06.769Z,84.21
2023-03-15T01:38:34.677Z,83.85
2023-03-15T01:41:01.911Z,84.10
2023-03-15T01:43:31.889Z,84.41
2023-03-15T01:46:13.445Z,84.37
2023-03-15T01:49:00.659Z,84.48
2023-03-15T01:51:42.878Z,84.58
2023-03-15T01:54:19.202Z,84.24
2023-03-15T01:56:52.703Z,84.72
2023-03-15T01:59:24.476Z,84.67
2023-03-15T02:01:54.666Z,84.70
2023-03-15T02:04:28.750Z,84.79
2023-03-15T02:07:01.892Z,84.70
2023-03-15T02:09:37.881Z,85.03
2023-03-15T02:12:05.248Z,84.96
2023-03-15T02:14:33.397Z,84.97
2023-03-15T02:16:59.944Z,85.10
2023-03-15T02:19:34.040Z,85.06
2023-03-15T02:22:30.495Z,85.23
2023-03-15T02:25:18.263Z,85.33
2023-03-15T02:27:45.289Z,85.29
2023-03-15T02:30:12.126Z,85.42
2023-03-15T02:32:39.457Z,85.77
2023-03-15T02:35:06.416Z,85.67
2023-03-15T02:37:32.935Z,85.40
2023-03-15T02:39:59.486Z,85.54
2023-03-15T02:42:26.583Z,85.35
2023-03-15T02:44:54.616Z,85.73
2023-03-15T02:47:27.008Z,85.78
2023-03-15T02:49:54.109Z,85.73
2023-03-15T02:52:22.763Z,86.03
2023-03-15T02:54:49.633Z,86.10
2023-03-15T02:57:18.820Z,86.11
2023-03-15T02:59:45.684Z,85.95
2023-03-15T03:02:13.632Z,86.01
2023-03-15T03:04:41.603Z,85.87
2023-03-15T03:07:08.315Z,85.67
2023-03-15T03:09:35.081Z,85.84
2023-03-15T03:12:01.623Z,85.71
2023-03-15T03:14:29.067Z,85.64
2023-03-15T03:16:55.780Z,85.39
2023-03-15T03:19:25.713Z,85.59
2023-03-15T03:21:53.578Z,85.80
2023-03-15T03:24:20.985Z,85.67
2023-03-15T03:26:47.629Z,85.84
2023-03-15T03:29:17.931Z,85.75
2023-03-15T03:31:45.051Z,85.71
2023-03-15T03:34:14.609Z,85.85
2023-03-15T03:36:43.352Z,85.33
2023-03-15T03:39:10.721Z,85.63
2023-03-15T03:41:37.884Z,85.72
2023-03-15T03:44:04.623Z,85.68
2023-03-15T03:46:31.298Z,85.69
2023-03-15T03:48:57.895Z,85.68
2023-03-15T03:51:24.464Z,85.70
2023-03-15T03:53:50.991Z,85.56
2023-03-15T03:56:17.513Z,85.53
2023-03-15T03:58:44.083Z,85.30
2023-03-15T04:01:11.666Z,85.59
2023-03-15T04:03:38.226Z,85.55
2023-03-15T04:06:05.730Z,85.28
2023-03-15T04:08:32.347Z,85.58
2023-03-15T04:10:59.194Z,85.50
2023-03-15T04:13:25.895Z,85.61
2023-03-15T04:15:57.471Z,85.41
2023-03-15T04:18:24.939Z,84.96
2023-03-15T04:20:54.720Z,85.32
2023-03-15T04:23:24.738Z,85.05
2023-03-15T04:25:52.499Z,84.91
2023-03-15T04:28:19.677Z,85.09
2023-03-15T04:30:48.489Z,84.74
2023-03-15T04:33:15.129Z,84.91
2023-03-15T04:35:42.762Z,84.51
2023-03-15T04:38:10.168Z,84.23
2023-03-15T04:40:36.874Z,84.54
2023-03-15T04:43:05.209Z,84.48
2023-03-15T04:45:31.976Z,84.19
2023-03-15T04:47:59.135Z,84.34
2023-03-15T04:50:26.165Z,84.24
2023-03-15T04:52:52.761Z,83.97
2023-03-15T04:55:19.493Z,83.81
2023-03-15T04:57:46.026Z,83.48
2023-03-15T05:00:13.094Z,83.42
2023-03-15T05:02:41.663Z,83.39
2023-03-15T05:05:09.986Z,83.38
2023-03-15T05:07:37.746Z,83.35
2023-03-15T05:10:06.303Z,83.14
2023-03-15T05:12:34.016Z,82.97
2023-03-15T05:15:00.549Z,83.01
2023-03-15T05:17:27.092Z,82.86
2023-03-15T05:19:53.682Z,82.75
2023-03-15T05:22:25.449Z,82.74
2023-03-15T05:24:53.833Z,82.79
2023-03-15T05:27:20.886Z,82.71
2023-03-15T05:29:47.471Z,82.89
2023-03-15T05:32:14.114Z,83.04
2023-03-15T05:34:40.792Z,82.98
2023-03-15T05:37:07.475Z,82.60
2023-03-15T05:39:34.868Z,82.68
2023-03-15T05:42:02.079Z,82.44
2023-03-15T05:44:28.717Z,82.42
2023-03-15T05:46:55.246Z,82.16
2023-03-15T05:49:21.861Z,82.28
2023-03-15T05:51:48.405Z,83.20
2023-03-15T05:54:15.247Z,83.76
2023-03-15T05:56:41.804Z,84.55
2023-03-15T05:59:08.338Z,80.87
2023-03-15T06:01:34.942Z,80.42
2023-03-15T06:04:01.480Z,80.06
2023-03-15T06:06:28.104Z,78.59
2023-03-15T06:08:55.083Z,78.31
2023-03-15T06:11:22.012Z,76.30
2023-03-15T06:13:48.514Z,75.51
2023-03-15T06:16:15.089Z,74.34
2023-03-15T06:18:41.672Z,75.32
2023-03-15T06:21:08.281Z,75.89
2023-03-15T06:23:34.884Z,74.08
2023-03-15T06:26:01.431Z,74.38
2023-03-15T06:28:27.956Z,75.59
2023-03-15T06:30:54.568Z,76.02
2023-03-15T06:33:21.700Z,76.86
2023-03-15T06:35:48.298Z,77.45
2023-03-15T06:38:15.272Z,77.96
2023-03-15T06:40:41.839Z,78.49
2023-03-15T06:43:08.858Z,79.14
2023-03-15T06:45:35.475Z,78.79
2023-03-15T06:48:02.058Z,78.80
2023-03-15T06:50:34.382Z,79.22
2023-03-15T06:53:11.057Z,79.36
2023-03-15T06:55:37.610Z,79.22
2023-03-15T06:58:04.171Z,79.54
2023-03-15T07:00:31.171Z,80.00
2023-03-15T07:02:57.861Z,80.00
2023-03-15T07:05:24.716Z,79.96
2023-03-15T07:07:51.315Z,80.22
2023-03-15T07:10:17.976Z,80.07
2023-03-15T07:12:44.544Z,80.07
2023-03-15T07:15:12.103Z,79.97
2023-03-15T07:17:38.639Z,80.30
2023-03-15T07:20:06.121Z,80.66
2023-03-15T07:22:35.387Z,80.60
2023-03-15T07:25:02.042Z,80.60
2023-03-15T07:27:29.326Z,80.47
2023-03-15T07:29:55.835Z,80.48
2023-03-15T07:32:22.680Z,80.56
2023-03-15T07:34:49.259Z,80.94
2023-03-15T07:37:17.382Z,81.05
2023-03-15T07:39:44.024Z,80.78
2023-03-15T07:42:10.861Z,81.27
2023-03-15T07:44:37.388Z,80.95
2023-03-15T07:47:04.138Z,80.90
2023-03-15T07:49:31.711Z,80.63
2023-03-15T07:51:58.373Z,80.55
2023-03-15T07:54:25.872Z,80.25
2023-03-15T07:56:53.437Z,80.64
2023-03-15T07:59:19.924Z,80.13
2023-03-15T08:01:46.566Z,80.17
2023-03-15T08:04:13.114Z,80.47
2023-03-15T08:06:39.643Z,79.86
2023-03-15T08:09:06.905Z,79.50
2023-03-15T08:14:05.899Z,79.93
2023-03-15T08:16:32.497Z,79.64
2023-03-15T08:18:59.172Z,80.19
2023-03-15T08:21:26.853Z,79.51
2023-03-15T08:23:53.416Z,79.73
2023-03-15T08:26:19.998Z,79.41
2023-03-15T08:28:46.511Z,78.85
2023-03-15T08:31:14.071Z,78.53
2023-03-15T08:33:41.035Z,78.18
2023-03-15T08:36:07.922Z,78.50
2023-03-15T08:38:34.953Z,78.39
2023-03-15T08:41:01.601Z,78.28
2023-03-15T08:43:28.206Z,78.62
2023-03-15T08:46:01.019Z,78.06
2023-03-15T08:48:28.172Z,77.76
2023-03-15T08:50:54.774Z,78.38
2023-03-15T08:53:21.283Z,78.46
2023-03-15T08:55:49.553Z,78.83
2023-03-15T08:58:16.432Z,78.61
2023-03-15T09:00:43.140Z,78.48
2023-03-15T09:03:09.852Z,78.06
2023-03-15T09:05:36.510Z,78.62
2023-03-15T09:08:03.272Z,78.11
2023-03-15T09:10:29.824Z,77.77
2023-03-15T09:12:56.447Z,77.99
2023-03-15T09:15:23.074Z,77.71
2023-03-15T09:17:51.742Z,78.25
2023-03-15T09:20:21.895Z,78.56
2023-03-15T09:22:53.868Z,78.31
2023-03-15T09:25:20.858Z,79.14
2023-03-15T09:27:47.564Z,77.28
2023-03-15T09:30:14.841Z,77.43
2023-03-15T09:32:41.478Z,77.19
2023-03-15T09:35:10.228Z,77.25
2023-03-15T09:37:36.798Z,77.10
2023-03-15T09:40:04.730Z,77.25
2023-03-15T09:42:53.383Z,77.17
2023-03-15T09:45:32.322Z,77.14
2023-03-15T09:48:32.444Z,76.64
2023-03-15T09:51:17.638Z,76.49
2023-03-15T09:54:05.875Z,76.35
2023-03-15T09:56:56.557Z,75.66
2023-03-15T09:59:32.830Z,75.52
2023-03-15T10:02:04.167Z,74.83
2023-03-15T10:04:40.605Z,75.36
2023-03-15T10:07:14.518Z,74.63
2023-03-15T10:09:41.116Z,75.23
2023-03-15T10:12:19.069Z,76.15
2023-03-15T10:15:16.728Z,75.52
2023-03-15T10:17:59.071Z,74.28
2023-03-15T10:20:34.290Z,74.87
2023-03-15T10:23:25.597Z,74.74
2023-03-15T10:25:54.308Z,74.37
2023-03-15T10:28:27.690Z,73.24
2023-03-15T10:30:57.363Z,73.03
2023-03-15T10:33:32.086Z,73.26
2023-03-15T10:36:10.543Z,73.47
2023-03-15T10:38:39.064Z,73.50
2023-03-15T10:41:06.744Z,72.20
2023-03-15T10:43:39.969Z,71.83
2023-03-15T10:46:08.749Z,71.40
2023-03-15T10:48:37.888Z,71.02
2023-03-15T10:51:17.992Z,69.64
2023-03-15T10:54:01.815Z,70.55
2023-03-15T10:56:32.319Z,70.02
2023-03-15T10:59:12.063Z,69.52
2023-03-15T11:01:39.271Z,69.60
2023-03-15T11:04:09.011Z,68.98
2023-03-15T11:06:48.635Z,68.66
2023-03-15T11:09:23.821Z,69.18
2023-03-15T11:11:59.396Z,68.50
2023-03-15T11:14:33.428Z,67.84
2023-03-15T11:17:01.807Z,67.58
2023-03-15T11:19:31.858Z,67.09
2023-03-15T11:22:01.083Z,66.17
2023-03-15T11:24:33.069Z,64.73
2023-03-15T11:27:01.864Z,64.80
2023-03-15T11:29:37.109Z,64.55
2023-03-15T11:32:13.718Z,65.37
2023-03-15T11:35:07.711Z,65.70
2023-03-15T11:37:46.206Z,65.10
2023-03-15T11:40:17.624Z,64.99
2023-03-15T11:42:54.982Z,65.56
2023-03-15T11:45:34.325Z,65.25
2023-03-15T11:48:10.432Z,64.36
2023-03-15T11:50:39.229Z,62.58
2023-03-15T11:53:08.237Z,61.48
2023-03-15T11:55:34.880Z,62.04
2023-03-15T11:58:42.464Z,61.86
2023-03-15T12:01:11.651Z,61.25
2023-03-15T12:03:45.222Z,61.47
2023-03-15T12:06:17.652Z,61.96
2023-03-15T12:08:53.197Z,61.67
2023-03-15T12:11:19.902Z,60.76
2023-03-15T12:14:01.756Z,60.47
2023-03-15T12:16:31.356Z,60.52
2023-03-15T12:18:59.769Z,61.41
2023-03-15T12:21:34.326Z,61.39
2023-03-15T12:24:05.295Z,60.45
2023-03-15T12:26:58.824Z,59.52
2023-03-15T12:29:28.335Z,59.83
2023-03-15T12:32:03.823Z,58.84
2023-03-15T12:34:44.586Z,58.82
2023-03-15T12:37:38.984Z,56.34
2023-03-15T12:40:22.389Z,56.22
2023-03-15T12:42:48.930Z,56.88
2023-03-15T12:45:15.464Z,57.11
2023-03-15T12:47:44.957Z,55.90
2023-03-15T12:50:36.557Z,56.54
2023-03-15T12:53:13.451Z,57.32
2023-03-15T12:55:40.702Z,55.38
2023-03-15T12:58:11.736Z,55.08
2023-03-15T13:00:42.004Z,54.56
2023-03-15T13:03:16.515Z,54.35
2023-03-15T13:06:04.878Z,55.12
2023-03-15T13:08:35.860Z,53.31
2023-03-15T13:11:27.525Z,53.00
2023-03-15T13:14:22.070Z,53.47
2023-03-15T13:17:02.072Z,52.36
2023-03-15T13:19:43.113Z,49.71
2023-03-15T13:22:22.185Z,51.38
2023-03-15T13:25:04.660Z,49.88
2023-03-15T13:27:38.112Z,49.22
2023-03-15T13:30:42.277Z,50.14
2023-03-15T13:33:08.766Z,49.53
2023-03-15T13:36:03.740Z,49.00
2023-03-15T13:38:48.751Z,50.02
2023-03-15T13:41:27.441Z,50.42
2023-03-15T13:43:56.708Z,50.80
2023-03-15T13:46:26.774Z,48.80
2023-03-15T13:48:55.105Z,48.99
2023-03-15T13:51:28.490Z,47.93
2023-03-15T13:54:02.123Z,48.42
2023-03-15T13:56:43.554Z,46.69
2023-03-15T13:59:15.882Z,46.20
2023-03-15T14:01:43.019Z,44.91
2023-03-15T14:04:17.898Z,43.93
2023-03-15T14:06:48.177Z,43.02
2023-03-15T14:09:24.019Z,42.17
2023-03-15T14:12:02.481Z,41.99
2023-03-15T14:14:31.290Z,40.45
2023-03-15T14:17:05.669Z,40.99
2023-03-15T14:19:34.656Z,38.31
2023-03-15T14:22:04.976Z,39.03
2023-03-15T14:24:40.809Z,38.79
2023-03-15T14:27:28.421Z,38.49
2023-03-15T14:29:58.571Z,35.71
2023-03-15T14:32:28.029Z,35.27
2023-03-15T14:35:24.176Z,34.37
2023-03-15T14:38:15.395Z,35.37
2023-03-15T14:40:42.347Z,35.17
2023-03-15T14:43:09.980Z,35.74
2023-03-15T14:45:38.988Z,36.83
2023-03-15T14:48:08.297Z,36.18
2023-03-15T14:50:38.778Z,35.55
2023-03-15T14:53:07.418Z,36.16
2023-03-15T14:55:36.688Z,36.04
2023-03-15T14:58:05.279Z,35.19
2023-03-15T15:00:32.913Z,35.21
2023-03-15T15:02:59.479Z,35.38
2023-03-15T15:05:31.914Z,35.45
2023-03-15T15:08:09.424Z,35.65
2023-03-15T15:10:36.879Z,35.76
2023-03-15T15:13:06.726Z,35.97
2023-03-15T15:15:44.008Z,35.50
2023-03-15T15:18:20.489Z,35.70
2023-03-15T15:20:47.405Z,35.19
2023-03-15T15:23:39.594Z,34.95
2023-03-15T15:26:19.774Z,34.17
2023-03-15T15:28:46.671Z,34.85
2023-03-15T15:31:19.080Z,34.10
2023-03-15T15:33:45.736Z,34.47
2023-03-15T15:36:14.746Z,33.85
2023-03-15T15:38:41.872Z,33.57
2023-03-15T15:41:14.979Z,32.61
2023-03-15T15:43:43.722Z,31.45
2023-03-15T15:46:12.479Z,31.96
2023-03-15T15:48:40.540Z,31.47
2023-03-15T15:51:28.405Z,31.19
2023-03-15T15:53:58.159Z,31.14
2023-03-15T15:56:32.023Z,31.05
2023-03-15T15:58:59.631Z,31.06
2023-03-15T16:01:26.491Z,31.74
2023-03-15T16:03:53.163Z,32.65
2023-03-15T16:06:21.365Z,33.47
2023-03-15T16:08:50.778Z,34.46
2023-03-15T16:11:18.439Z,33.71
2023-03-15T16:13:45.987Z,33.22
2023-03-15T16:16:15.468Z,34.30
2023-03-15T16:18:43.281Z,34.69
2023-03-15T16:21:28.412Z,35.76
2023-03-15T16:23:59.368Z,36.17
2023-03-15T16:26:25.998Z,37.30
2023-03-15T16:28:53.073Z,36.79
2023-03-15T16:31:22.184Z,37.71
2023-03-15T16:33:49.885Z,38.61
2023-03-15T16:36:22.225Z,38.52
2023-03-15T16:38:49.020Z,39.21
2023-03-15T16:41:16.618Z,39.40
2023-03-15T16:43:43.193Z,39.24
2023-03-15T16:46:15.793Z,40.18
2023-03-15T16:48:43.134Z,40.94
2023-03-15T16:51:13.505Z,40.70
2023-03-15T16:53:44.566Z,40.90
2023-03-15T16:56:13.529Z,41.44
2023-03-15T16:58:40.724Z,41.98
2023-03-15T17:01:10.381Z,43.03
2023-03-15T17:03:37.083Z,42.59
2023-03-15T17:06:03.734Z,43.94
2023-03-15T17:08:30.375Z,43.80
2023-03-15T17:10:56.965Z,44.76
2023-03-15T17:13:27.555Z,45.01
2023-03-15T17:15:54.209Z,44.96
2023-03-15T17:18:26.896Z,45.06
2023-03-15T17:20:53.434Z,45.79
2023-03-15T17:23:21.388Z,46.11
2023-03-15T17:25:48.884Z,46.73
2023-03-15T17:28:15.636Z,46.40
2023-03-15T17:30:42.588Z,46.99
2023-03-15T17:33:09.490Z,47.60
2023-03-15T17:35:40.267Z,48.27
2023-03-15T17:38:15.554Z,48.55
2023-03-15T17:40:42.474Z,48.79
2023-03-15T17:43:12.843Z,49.88
2023-03-15T17:45:39.444Z,50.92
2023-03-15T17:48:06.223Z,51.32
2023-03-15T17:50:33.867Z,51.76
2023-03-15T17:53:03.261Z,52.00
2023-03-15T17:55:34.842Z,52.19
2023-03-15T17:58:03.096Z,52.92
2023-03-15T18:00:32.598Z,53.00
2023-03-15T18:03:00.598Z,53.87
2023-03-15T18:05:28.480Z,54.17
2023-03-15T18:07:58.966Z,53.83
2023-03-15T18:10:31.555Z,53.91
2023-03-15T18:12:58.104Z,54.07
2023-03-15T18:15:24.725Z,54.59
2023-03-15T18:17:51.383Z,54.74
2023-03-15T18:20:18.919Z,55.24
2023-03-15T18:22:45.511Z,55.53
2023-03-15T18:25:26.596Z,55.80
2023-03-15T18:27:53.528Z,56.16
2023-03-15T18:30:25.815Z,56.79
2023-03-15T18:32:56.793Z,57.12
2023-03-15T18:35:32.133Z,57.77
2023-03-15T18:37:58.960Z,57.88
2023-03-15T18:40:29.390Z,58.53
2023-03-15T18:42:57.968Z,58.43
2023-03-15T18:45:30.838Z,58.25
2023-03-15T18:47:59.829Z,58.63
2023-03-15T18:50:27.447Z,59.06
2023-03-15T18:52:54.764Z,59.54
2023-03-15T18:55:24.083Z,59.39
2023-03-15T18:57:52.702Z,59.92
2023-03-15T19:00:29.539Z,59.85
2023-03-15T19:02:59.207Z,60.96
2023-03-15T19:05:27.496Z,60.93
2023-03-15T19:07:54.260Z,60.91
2023-03-15T19:10:22.328Z,61.59
2023-03-15T19:12:49.604Z,61.95
2023-03-15T19:15:17.711Z,62.66
2023-03-15T19:17:46.352Z,62.49
2023-03-15T19:20:15.146Z,62.72
2023-03-15T19:22:42.042Z,63.04
2023-03-15T19:25:11.541Z,63.10
2023-03-15T19:27:38.338Z,64.11
2023-03-15T19:30:07.982Z,64.17
2023-03-15T19:32:35.973Z,64.17
2023-03-15T19:35:02.622Z,64.53
2023-03-15T19:37:29.328Z,65.06
2023-03-15T19:39:55.872Z,64.76
2023-03-15T19:42:22.429Z,64.47
2023-03-15T19:44:48.978Z,64.94
2023-03-15T19:47:15.588Z,64.99
2023-03-15T19:49:42.142Z,65.24
2023-03-15T19:52:09.572Z,65.26
2023-03-15T19:54:36.135Z,65.53
2023-03-15T19:57:02.746Z,66.08
2023-03-15T19:59:29.453Z,65.57
2023-03-15T20:01:56.087Z,65.42
2023-03-15T20:04:22.808Z,66.13
2023-03-15T20:06:49.396Z,66.06
2023-03-15T20:09:15.991Z,66.13
2023-03-15T20:11:42.531Z,66.11
2023-03-15T20:14:09.047Z,66.22
2023-03-15T20:16:35.572Z,65.75
2023-03-15T20:19:02.137Z,65.88
2023-03-15T20:21:29.803Z,66.42
2023-03-15T20:23:56.340Z,66.67
2023-03-15T20:26:25.082Z,66.43
2023-03-15T20:28:51.746Z,66.55
2023-03-15T20:31:19.257Z,66.95
2023-03-15T20:33:49.025Z,66.66
2023-03-15T20:36:16.410Z,67.33
2023-03-15T20:38:43.265Z,66.93
2023-03-15T20:41:09.969Z,66.92
2023-03-15T20:43:36.577Z,66.98
2023-03-15T20:46:04.353Z,67.10
2023-03-15T20:48:33.613Z,66.77
2023-03-15T20:51:00.318Z,67.76
2023-03-15T20:53:26.868Z,67.52
2023-03-15T20:55:53.419Z,67.60
2023-03-15T20:58:20.000Z,67.79
2023-03-15T21:00:46.674Z,67.83
2023-03-15T21:03:14.881Z,67.82
2023-03-15T21:05:43.175Z,68.38
2023-03-15T21:08:10.007Z,68.57
2023-03-15T21:10:37.504Z,68.75
2023-03-15T21:13:09.917Z,68.49
2023-03-15T21:15:45.755Z,68.47
2023-03-15T21:18:14.824Z,69.05
2023-03-15T21:20:41.743Z,69.06
2023-03-15T21:23:08.411Z,69.37
2023-03-15T21:25:35.594Z,69.66
2023-03-15T21:28:02.178Z,69.54
2023-03-15T21:30:28.848Z,70.35
2023-03-15T21:32:55.634Z,70.15
2023-03-15T21:35:22.363Z,70.11
2023-03-15T21:37:48.921Z,70.18
2023-03-15T21:40:15.806Z,70.23
2023-03-15T21:42:47.793Z,70.78
2023-03-15T21:45:14.735Z,70.40
2023-03-15T21:47:41.661Z,70.40
2023-03-15T21:50:09.066Z,70.59
2023-03-15T21:52:35.772Z,70.99
2023-03-15T21:55:02.491Z,70.94
2023-03-15T21:57:29.101Z,71.29
2023-03-15T21:59:55.689Z,71.50
2023-03-15T22:02:22.341Z,71.19
2023-03-15T22:04:48.964Z,71.29
2023-03-15T22:07:15.740Z,71.30
2023-03-15T22:09:43.374Z,71.57
2023-03-15T22:12:10.518Z,71.50
2023-03-15T22:14:37.233Z,71.70
2023-03-15T22:17:04.954Z,72.04
2023-03-15T22:19:32.104Z,71.47
2023-03-15T22:21:58.806Z,71.93
2023-03-15T22:24:25.552Z,72.09
2023-03-15T22:26:53.128Z,72.29
2023-03-15T22:29:20.135Z,71.93
2023-03-15T22:31:46.802Z,72.69
2023-03-15T22:34:13.373Z,72.62
2023-03-15T22:36:39.926Z,72.31
2023-03-15T22:39:07.660Z,72.75
2023-03-15T22:41:34.593Z,72.39
2023-03-15T22:44:01.520Z,72.62
2023-03-15T22:46:28.461Z,72.55
2023-03-15T22:48:55.127Z,72.51
2023-03-15T22:51:21.907Z,72.35
2023-03-15T22:53:48.456Z,72.64
2023-03-15T22:56:15.406Z,72.39
2023-03-15T22:58:42.162Z,72.34
2023-03-15T23:01:09.750Z,72.55
2023-03-15T23:03:36.612Z,73.15
2023-03-15T23:06:04.234Z,73.01
2023-03-15T23:08:30.971Z,72.57
2023-03-15T23:10:58.573Z,72.66
2023-03-15T23:13:25.379Z,72.79
2023-03-15T23:15:51.924Z,73.08
2023-03-15T23:18:18.448Z,72.91
2023-03-15T23:20:45.121Z,73.12
2023-03-15T23:23:11.694Z,73.27
2023-03-15T23:25:39.702Z,73.22
2023-03-15T23:28:07.468Z,73.73
2023-03-15T23:30:36.088Z,73.73
2023-03-15T23:33:03.834Z,73.94
2023-03-15T23:35:31.957Z,73.71
2023-03-15T23:37:58.708Z,74.04
2023-03-15T23:40:26.193Z,74.09
2023-03-15T23:42:59.202Z,74.34
2023-03-15T23:45:27.753Z,74.67
2023-03-15T23:47:54.323Z,74.32
2023-03-15T23:50:22.175Z,74.83
2023-03-15T23:52:48.696Z,74.73
2023-03-15T23:55:15.274Z,75.15
2023-03-15T23:57:41.869Z,75.31
